Terminal Aerodrome Forecast
Issued by NWS Melbourne, FL

Home | Current Version | Previous Version | Text Only | Print | Product List | Glossary On
Versions: 1 2 3 4 5 6 7 8 9 10 11 12
000
FTUS42 KMLB 201100
TAFVRB
TAF
KVRB 201130Z 2012/2112 25003KT P6SM SCT045 BKN250
     FM201500 17006KT P6SM SCT100 BKN250
     FM202000 12008KT P6SM SCT080 BKN120
     FM210400 19003KT P6SM SCT060 OVC120=

USA.gov is the U.S. government's official web portal to all federal, state and local government web resources and services.